createdAt,value
2023-02-08T00:03:39.983Z,16.05
2023-02-08T00:06:08.556Z,21.38
2023-02-08T00:08:38.792Z,21.92
2023-02-08T00:11:10.665Z,16.83
2023-02-08T00:13:41.653Z,16.42
2023-02-08T00:16:13.885Z,18.73
2023-02-08T00:18:41.064Z,21.15
2023-02-08T00:23:38.519Z,17.73
2023-02-08T00:30:59.248Z,18.07
2023-02-08T00:33:26.231Z,20.73
2023-02-08T00:35:59.271Z,19.67
2023-02-08T00:38:26.537Z,19.63
2023-02-08T00:40:53.507Z,16.23
2023-02-08T00:43:20.459Z,18.40
2023-02-08T00:45:58.640Z,17.90
2023-02-08T00:48:26.769Z,20.73
2023-02-08T00:50:59.736Z,22.73
2023-02-08T00:53:26.702Z,20.27
2023-02-08T00:55:55.279Z,19.85
2023-02-08T00:58:25.568Z,20.10
2023-02-08T01:00:55.003Z,20.45
2023-02-08T01:03:25.199Z,19.63
2023-02-08T01:05:54.670Z,21.92
2023-02-08T01:08:23.864Z,23.53
2023-02-08T01:10:50.810Z,19.67
2023-02-08T01:13:20.188Z,17.33
2023-02-08T01:15:49.500Z,19.67
2023-02-08T01:18:16.840Z,20.10
2023-02-08T01:20:43.698Z,17.77
2023-02-08T01:23:10.655Z,20.23
2023-02-08T01:25:37.618Z,21.38
2023-02-08T01:28:05.628Z,17.27
2023-02-08T01:30:35.150Z,20.27
2023-02-08T01:33:02.040Z,20.23
2023-02-08T01:35:29.074Z,19.50
2023-02-08T01:37:57.486Z,23.13
2023-02-08T01:40:24.502Z,25.40
2023-02-08T01:42:51.447Z,23.67
2023-02-08T01:45:22.949Z,21.90
2023-02-08T01:47:55.432Z,21.50
2023-02-08T01:50:30.812Z,19.60
2023-02-08T01:52:58.277Z,21.70
2023-02-08T01:55:34.173Z,21.13
2023-02-08T01:58:05.742Z,21.60
2023-02-08T02:00:35.238Z,21.63
2023-02-08T02:03:05.559Z,22.93
2023-02-08T02:05:43.082Z,21.80
2023-02-08T02:08:13.596Z,21.93
2023-02-08T02:10:42.667Z,23.03
2023-02-08T02:13:16.856Z,19.93
2023-02-08T02:15:45.308Z,22.53
2023-02-08T02:18:17.922Z,25.60
2023-02-08T02:20:53.367Z,21.20
2023-02-08T02:23:38.956Z,21.83
2023-02-08T02:26:08.697Z,21.30
2023-02-08T02:28:56.755Z,20.77
2023-02-08T02:31:36.790Z,21.40
2023-02-08T02:34:15.042Z,21.30
2023-02-08T02:36:58.605Z,20.33
2023-02-08T02:39:39.556Z,20.87
2023-02-08T02:42:38.397Z,19.80
2023-02-08T02:45:20.220Z,20.93
2023-02-08T02:48:07.050Z,19.33
2023-02-08T02:50:44.796Z,20.30
2023-02-08T02:53:18.062Z,17.43
2023-02-08T02:55:50.290Z,21.10
2023-02-08T02:58:20.129Z,20.63
2023-02-08T03:00:53.743Z,20.00
2023-02-08T03:03:28.622Z,19.02
2023-02-08T03:06:04.671Z,23.20
2023-02-08T03:09:16.483Z,20.10
2023-02-08T03:11:56.777Z,22.67
2023-02-08T03:14:44.445Z,19.97
2023-02-08T03:17:51.684Z,21.93
2023-02-08T03:20:25.282Z,19.53
2023-02-08T03:22:54.379Z,23.40
2023-02-08T03:25:33.057Z,22.13
2023-02-08T03:28:22.201Z,17.90
2023-02-08T03:31:07.873Z,20.20
2023-02-08T03:33:48.765Z,21.13
2023-02-08T03:36:27.208Z,18.37
2023-02-08T03:38:55.455Z,14.47
2023-02-08T03:41:31.023Z,18.37
2023-02-08T03:44:07.819Z,23.93
2023-02-08T03:46:41.593Z,19.27
2023-02-08T03:49:14.003Z,21.80
2023-02-08T03:51:42.748Z,21.43
2023-02-08T03:54:16.993Z,18.27
2023-02-08T03:57:07.478Z,21.13
2023-02-08T03:59:41.059Z,23.50
2023-02-08T04:02:12.515Z,19.77
2023-02-08T04:04:46.507Z,18.33
2023-02-08T04:07:17.523Z,19.87
2023-02-08T04:09:44.819Z,18.60
2023-02-08T04:12:15.088Z,20.33
2023-02-08T04:14:44.301Z,16.80
2023-02-08T04:17:13.652Z,21.20
2023-02-08T04:19:40.687Z,20.97
2023-02-08T04:22:07.678Z,18.52
2023-02-08T04:24:39.016Z,21.07
2023-02-08T04:27:10.802Z,23.17
2023-02-08T04:29:39.839Z,30.53
2023-02-08T04:32:13.383Z,24.15
2023-02-08T04:34:40.686Z,30.43
2023-02-08T04:37:11.103Z,23.40
2023-02-08T04:39:38.399Z,23.57
2023-02-08T04:42:10.819Z,23.63
2023-02-08T04:44:37.957Z,21.30
2023-02-08T04:49:34.145Z,18.53
2023-02-08T04:56:58.125Z,20.20
2023-02-08T04:59:27.337Z,18.13
2023-02-08T05:01:56.552Z,21.77
2023-02-08T05:04:23.531Z,20.17
2023-02-08T05:06:50.501Z,21.02
2023-02-08T05:09:17.336Z,23.13
2023-02-08T05:11:46.606Z,23.02
2023-02-08T05:14:13.415Z,26.87
2023-02-08T05:16:40.304Z,37.58
2023-02-08T05:19:11.671Z,38.90
2023-02-08T05:21:38.616Z,25.93
2023-02-08T05:24:06.832Z,22.33
2023-02-08T05:26:33.843Z,23.67
2023-02-08T05:29:03.189Z,22.50
2023-02-08T05:33:57.568Z,21.37
2023-02-08T05:36:24.641Z,23.98
2023-02-08T05:43:49.938Z,18.97
2023-02-08T05:46:16.907Z,19.73
2023-02-08T05:51:13.038Z,19.70
2023-02-08T05:53:40.203Z,19.45
2023-02-08T05:56:09.617Z,19.17
2023-02-08T05:58:36.514Z,19.17
2023-02-08T06:01:12.203Z,20.88
2023-02-08T06:03:43.137Z,23.33
2023-02-08T06:06:14.349Z,22.00
2023-02-08T06:08:41.717Z,20.60
2023-02-08T06:11:13.613Z,26.57
2023-02-08T06:13:41.045Z,20.77
2023-02-08T06:16:10.156Z,22.00
2023-02-08T06:18:39.383Z,22.70
2023-02-08T06:21:12.486Z,25.10
2023-02-08T06:23:39.679Z,27.23
2023-02-08T06:26:06.892Z,25.90
2023-02-08T06:31:02.832Z,24.73
2023-02-08T06:33:30.295Z,27.13
2023-02-08T06:35:57.321Z,20.43
2023-02-08T06:38:24.456Z,20.27
2023-02-08T06:40:51.436Z,24.73
2023-02-08T06:43:19.428Z,32.90
2023-02-08T06:48:14.591Z,24.43
2023-02-08T06:50:41.795Z,28.87
2023-02-08T06:53:08.995Z,32.43
2023-02-08T06:55:38.996Z,31.30
2023-02-08T06:58:05.954Z,37.70
2023-02-08T07:03:01.984Z,46.37
2023-02-08T07:05:29.037Z,37.90
2023-02-08T07:12:52.079Z,32.27
2023-02-08T07:15:19.037Z,27.67
2023-02-08T07:17:48.336Z,31.43
2023-02-08T07:22:44.593Z,28.93
2023-02-08T07:25:11.461Z,26.30
2023-02-08T07:27:38.419Z,30.67
2023-02-08T07:30:06.246Z,32.00
2023-02-08T07:32:34.764Z,26.53
2023-02-08T07:35:01.822Z,32.37
2023-02-08T07:37:32.964Z,30.93
2023-02-08T07:39:59.981Z,31.13
2023-02-08T07:42:26.847Z,25.25
2023-02-08T07:45:05.713Z,28.33
2023-02-08T07:47:37.133Z,27.67
2023-02-08T07:50:04.261Z,33.37
2023-02-08T07:55:06.360Z,28.93
2023-02-08T07:57:37.989Z,28.17
2023-02-08T08:00:05.270Z,29.87
2023-02-08T08:02:39.365Z,28.73
2023-02-08T08:05:06.948Z,30.13
2023-02-08T08:07:34.153Z,28.63
2023-02-08T08:17:24.758Z,26.83
2023-02-08T08:19:54.288Z,22.95
2023-02-08T08:22:21.443Z,25.03
2023-02-08T08:24:48.438Z,30.60
2023-02-08T08:27:15.470Z,22.55
2023-02-08T08:29:45.419Z,30.00
2023-02-08T08:32:12.408Z,28.85
2023-02-08T08:34:39.511Z,23.23
2023-02-08T08:39:33.532Z,22.85
2023-02-08T08:42:04.108Z,24.17
2023-02-08T08:44:31.400Z,21.25
2023-02-08T08:47:00.966Z,25.02
2023-02-08T08:52:00.719Z,25.58
2023-02-08T08:54:32.269Z,23.20
2023-02-08T08:57:05.249Z,19.25
2023-02-08T08:59:34.736Z,23.08
2023-02-08T09:02:01.679Z,22.10
2023-02-08T09:04:30.953Z,20.52
2023-02-08T09:07:00.163Z,19.73
2023-02-08T09:09:27.093Z,21.42
2023-02-08T09:11:54.115Z,21.45
2023-02-08T09:14:23.168Z,26.55
2023-02-08T09:16:50.387Z,24.88
2023-02-08T09:19:19.539Z,21.50
2023-02-08T09:21:51.535Z,30.83
2023-02-08T09:24:19.467Z,26.80
2023-02-08T09:26:48.601Z,31.40
2023-02-08T09:29:18.446Z,26.63
2023-02-08T09:31:45.732Z,25.27
2023-02-08T09:34:12.826Z,18.98
2023-02-08T09:36:43.335Z,24.10
2023-02-08T09:39:22.595Z,20.30
2023-02-08T09:41:58.267Z,21.58
2023-02-08T09:44:37.505Z,20.95
2023-02-08T09:47:18.230Z,29.88
2023-02-08T09:49:58.614Z,26.20
2023-02-08T09:52:49.774Z,23.50
2023-02-08T09:55:40.566Z,30.42
2023-02-08T09:58:40.386Z,22.17
2023-02-08T10:01:20.191Z,22.50
2023-02-08T10:03:53.476Z,22.48
2023-02-08T10:06:22.776Z,25.20
2023-02-08T10:08:53.562Z,21.45
2023-02-08T10:11:43.248Z,20.60
2023-02-08T10:14:28.768Z,27.45
2023-02-08T10:17:23.474Z,22.27
2023-02-08T10:20:02.155Z,18.38
2023-02-08T10:22:43.398Z,19.10
2023-02-08T10:25:34.587Z,17.65
2023-02-08T10:28:22.684Z,18.38
2023-02-08T10:31:01.025Z,20.88
2023-02-08T10:33:50.003Z,18.50
2023-02-08T10:36:20.489Z,16.88
2023-02-08T10:38:51.306Z,17.83
2023-02-08T10:41:31.971Z,18.05
2023-02-08T10:44:02.380Z,18.70
2023-02-08T10:46:38.441Z,16.23
2023-02-08T10:49:27.572Z,15.57
2023-02-08T10:51:54.585Z,16.08
2023-02-08T10:54:21.675Z,16.13
2023-02-08T10:56:58.318Z,16.80
2023-02-08T10:59:32.857Z,20.48
2023-02-08T11:02:20.414Z,17.92
2023-02-08T11:05:05.593Z,14.75
2023-02-08T11:07:36.059Z,14.73
2023-02-08T11:10:18.800Z,14.88
2023-02-08T11:12:57.764Z,15.80
2023-02-08T11:15:38.962Z,16.85
2023-02-08T11:18:07.306Z,14.98
2023-02-08T11:20:38.938Z,17.95
2023-02-08T11:23:30.516Z,14.40
2023-02-08T11:26:24.892Z,16.05
2023-02-08T11:29:15.141Z,16.60
2023-02-08T11:32:14.499Z,12.27
2023-02-08T11:34:43.671Z,13.35
2023-02-08T11:37:20.977Z,16.90
2023-02-08T11:39:51.769Z,13.57
2023-02-08T11:42:47.165Z,10.32
2023-02-08T11:45:35.686Z,12.63
2023-02-08T11:48:44.557Z,16.25
2023-02-08T11:51:23.229Z,13.88
2023-02-08T11:53:50.155Z,14.52
2023-02-08T11:56:18.867Z,17.08
2023-02-08T11:59:20.556Z,15.38
2023-02-08T12:01:52.489Z,11.40
2023-02-08T12:04:19.408Z,13.45
2023-02-08T12:07:16.845Z,13.02
2023-02-08T12:10:03.530Z,10.75
2023-02-08T12:12:47.535Z,10.40
2023-02-08T12:15:26.191Z,10.10
2023-02-08T12:18:05.049Z,12.73
2023-02-08T12:20:47.117Z,10.95
2023-02-08T12:23:26.884Z,11.30
2023-02-08T12:26:11.289Z,8.75
2023-02-08T12:29:01.491Z,8.55
2023-02-08T12:31:37.759Z,12.40
2023-02-08T12:34:21.253Z,14.23
2023-02-08T12:37:18.372Z,13.15
2023-02-08T12:40:18.375Z,11.18
2023-02-08T12:42:49.189Z,12.57
2023-02-08T12:46:22.539Z,10.82
2023-02-08T12:49:08.234Z,14.60
2023-02-08T12:51:44.244Z,9.90
2023-02-08T12:54:17.326Z,15.48
2023-02-08T12:57:00.331Z,9.52
2023-02-08T12:59:31.530Z,9.95
2023-02-08T13:02:04.309Z,8.93
2023-02-08T13:04:41.519Z,14.52
2023-02-08T13:07:22.495Z,10.05
2023-02-08T13:10:06.532Z,10.30
2023-02-08T13:12:38.233Z,12.18
2023-02-08T13:15:28.460Z,10.32
2023-02-08T13:18:13.395Z,10.13
2023-02-08T13:21:13.236Z,13.48
2023-02-08T13:23:53.031Z,10.25
2023-02-08T13:26:28.145Z,13.50
2023-02-08T13:29:01.626Z,13.50
2023-02-08T13:31:37.877Z,11.00
2023-02-08T13:34:30.697Z,10.48
2023-02-08T13:37:16.707Z,10.00
2023-02-08T13:39:58.473Z,9.52
2023-02-08T13:42:36.330Z,11.57
2023-02-08T13:45:08.500Z,13.43
2023-02-08T13:47:48.635Z,12.05
2023-02-08T13:50:29.221Z,13.10
2023-02-08T13:52:56.357Z,12.38
2023-02-08T13:55:33.248Z,14.68
2023-02-08T13:58:02.747Z,10.98
2023-02-08T14:00:38.905Z,10.85
2023-02-08T14:03:07.995Z,17.08
2023-02-08T14:05:53.781Z,12.48
2023-02-08T14:08:48.165Z,12.13
2023-02-08T14:11:26.957Z,22.90
2023-02-08T14:14:06.087Z,15.52
2023-02-08T14:16:38.733Z,9.20
2023-02-08T14:19:23.988Z,11.45
2023-02-08T14:22:03.607Z,14.50
2023-02-08T14:24:36.279Z,12.93
2023-02-08T14:27:32.989Z,12.80
2023-02-08T14:30:03.091Z,14.75
2023-02-08T14:32:35.653Z,25.02
2023-02-08T14:35:22.405Z,13.48
2023-02-08T14:37:55.812Z,13.50
2023-02-08T14:40:47.660Z,14.52
2023-02-08T14:43:20.696Z,11.82
2023-02-08T14:45:53.394Z,12.82
2023-02-08T14:48:30.482Z,12.35
2023-02-08T14:51:10.877Z,15.25
2023-02-08T14:53:57.027Z,12.90
2023-02-08T14:56:33.797Z,12.05
2023-02-08T14:59:05.076Z,16.60
2023-02-08T15:01:44.630Z,11.35
2023-02-08T15:04:13.782Z,16.63
2023-02-08T15:06:40.981Z,12.93
2023-02-08T15:09:27.315Z,13.82
2023-02-08T15:12:15.310Z,13.00
2023-02-08T15:14:44.461Z,13.77
2023-02-08T15:17:37.026Z,25.40
2023-02-08T15:20:07.380Z,15.10
2023-02-08T15:23:03.391Z,13.48
2023-02-08T15:25:39.504Z,14.77
2023-02-08T15:28:20.373Z,13.52
2023-02-08T15:30:56.766Z,14.65
2023-02-08T15:33:23.986Z,15.82
2023-02-08T15:36:06.197Z,15.82
2023-02-08T15:38:38.748Z,14.77
2023-02-08T15:41:24.058Z,16.98
2023-02-08T15:44:21.113Z,15.27
2023-02-08T15:46:55.070Z,14.88
2023-02-08T15:49:46.344Z,17.67
2023-02-08T15:52:20.176Z,21.02
2023-02-08T15:54:50.125Z,16.80
2023-02-08T15:57:34.185Z,17.13
2023-02-08T16:00:12.950Z,17.65
2023-02-08T16:02:40.990Z,18.23
2023-02-08T16:05:21.346Z,28.10
2023-02-08T16:07:51.880Z,18.52
2023-02-08T16:10:36.673Z,17.90
2023-02-08T16:13:07.508Z,17.05
2023-02-08T16:15:40.647Z,15.07
2023-02-08T16:18:32.382Z,18.35
2023-02-08T16:21:02.258Z,18.92
2023-02-08T16:23:39.172Z,19.15
2023-02-08T16:26:45.623Z,17.95
2023-02-08T16:29:23.602Z,20.25
2023-02-08T16:32:01.374Z,22.67
2023-02-08T16:34:30.444Z,22.40
2023-02-08T16:36:57.370Z,24.08
2023-02-08T16:39:37.096Z,18.80
2023-02-08T16:42:15.712Z,19.23
2023-02-08T16:45:07.669Z,24.30
2023-02-08T16:47:56.916Z,19.33
2023-02-08T16:50:28.565Z,23.63
2023-02-08T16:53:02.641Z,20.95
2023-02-08T16:55:33.442Z,20.60
2023-02-08T16:58:00.431Z,23.45
2023-02-08T17:00:32.993Z,18.70
2023-02-08T17:03:00.824Z,22.90
2023-02-08T17:05:31.264Z,22.13
2023-02-08T17:07:59.587Z,22.40
2023-02-08T17:10:32.047Z,22.45
2023-02-08T17:13:17.399Z,24.55
2023-02-08T17:15:52.194Z,22.85
2023-02-08T17:18:21.512Z,27.00
2023-02-08T17:20:48.692Z,26.38
2023-02-08T17:23:18.057Z,28.60
2023-02-08T17:25:45.270Z,28.30
2023-02-08T17:28:20.320Z,23.67
2023-02-08T17:30:50.422Z,26.20
2023-02-08T17:33:20.118Z,27.27
2023-02-08T17:35:49.278Z,34.72
2023-02-08T17:38:19.459Z,23.55
2023-02-08T17:40:49.901Z,25.80
2023-02-08T17:43:16.917Z,27.30
2023-02-08T17:45:46.689Z,29.08
2023-02-08T17:48:14.474Z,28.45
2023-02-08T17:50:44.246Z,25.10
2023-02-08T17:53:14.181Z,28.60
2023-02-08T17:55:45.122Z,27.38
2023-02-08T17:58:12.893Z,26.77
2023-02-08T18:00:40.262Z,37.42
2023-02-08T18:03:08.516Z,27.33
2023-02-08T18:05:38.295Z,30.15
2023-02-08T18:08:07.638Z,33.17
2023-02-08T18:13:03.632Z,29.15
2023-02-08T18:15:30.598Z,28.45
2023-02-08T18:17:57.428Z,27.95
2023-02-08T18:20:24.337Z,27.92
2023-02-08T18:22:53.669Z,32.13
2023-02-08T18:25:20.738Z,30.00
2023-02-08T18:27:52.328Z,34.95
2023-02-08T18:30:26.147Z,29.98
2023-02-08T18:32:57.436Z,35.20
2023-02-08T18:35:24.410Z,29.95
2023-02-08T18:37:53.880Z,33.00
2023-02-08T18:40:20.817Z,32.50
2023-02-08T18:42:47.702Z,29.73
2023-02-08T18:45:14.661Z,31.10
2023-02-08T18:47:41.621Z,42.35
2023-02-08T18:50:11.787Z,50.72
2023-02-08T18:52:38.761Z,35.47
2023-02-08T18:55:06.382Z,26.60
2023-02-08T18:57:38.828Z,30.13
2023-02-08T19:00:06.318Z,28.38
2023-02-08T19:02:33.897Z,29.75
2023-02-08T19:05:00.808Z,30.80
2023-02-08T19:07:27.728Z,31.38
2023-02-08T19:09:54.816Z,33.17
2023-02-08T19:12:22.037Z,32.03
2023-02-08T19:17:20.017Z,27.70
2023-02-08T19:19:47.060Z,35.03
2023-02-08T19:22:16.293Z,28.27
2023-02-08T19:24:45.725Z,26.85
2023-02-08T19:27:12.888Z,29.77
2023-02-08T19:29:43.195Z,27.58
2023-02-08T19:32:10.122Z,29.58
2023-02-08T19:34:37.110Z,26.75
2023-02-08T19:37:04.002Z,39.90
2023-02-08T19:39:33.418Z,34.20
2023-02-08T19:42:00.318Z,31.15
2023-02-08T19:44:30.721Z,29.02
2023-02-08T19:47:02.414Z,27.42
2023-02-08T19:49:29.321Z,32.28
2023-02-08T19:51:56.667Z,27.13
2023-02-08T19:56:55.845Z,27.25
2023-02-08T19:59:26.483Z,25.73
2023-02-08T20:01:55.883Z,25.60
2023-02-08T20:04:23.366Z,26.77
2023-02-08T20:06:53.059Z,27.75
2023-02-08T20:09:21.093Z,25.52
2023-02-08T20:11:58.108Z,29.23
2023-02-08T20:14:30.846Z,28.42
2023-02-08T20:17:00.024Z,30.30
2023-02-08T20:19:29.871Z,30.42
2023-02-08T20:21:59.074Z,28.27
2023-02-08T20:24:26.182Z,27.55
2023-02-08T20:26:53.350Z,28.48
2023-02-08T20:29:20.607Z,26.67
2023-02-08T20:31:49.703Z,30.38
2023-02-08T20:34:18.818Z,49.22
2023-02-08T20:37:05.282Z,37.10
2023-02-08T20:39:33.160Z,30.05
2023-02-08T20:42:02.320Z,31.83
2023-02-08T20:44:29.554Z,29.25
2023-02-08T20:49:25.588Z,32.38
2023-02-08T20:51:53.960Z,27.95
2023-02-08T20:54:24.482Z,34.90
2023-02-08T20:56:53.113Z,30.75
2023-02-08T20:59:23.071Z,33.63
2023-02-08T21:01:50.890Z,31.67
2023-02-08T21:04:20.055Z,31.02
2023-02-08T21:06:47.167Z,31.10
2023-02-08T21:09:16.106Z,29.85
2023-02-08T21:11:46.108Z,32.70
2023-02-08T21:14:20.768Z,28.02
2023-02-08T21:16:51.663Z,31.30
2023-02-08T21:19:20.598Z,29.33
2023-02-08T21:21:53.092Z,32.88
2023-02-08T21:24:20.660Z,27.48
2023-02-08T21:26:47.629Z,29.25
2023-02-08T21:29:14.656Z,28.48
2023-02-08T21:31:41.712Z,31.27
2023-02-08T21:34:08.760Z,28.23
2023-02-08T21:36:37.731Z,29.85
2023-02-08T21:39:07.462Z,31.65
2023-02-08T21:41:37.214Z,29.98
2023-02-08T21:44:05.606Z,27.83
2023-02-08T21:46:32.812Z,28.88
2023-02-08T21:52:06.649Z,32.90
2023-02-08T21:54:41.933Z,29.23
2023-02-08T21:57:19.101Z,34.50
2023-02-08T21:59:48.104Z,33.05
2023-02-08T22:02:21.855Z,37.58
2023-02-08T22:05:10.985Z,39.45
2023-02-08T22:07:55.583Z,35.78
2023-02-08T22:10:26.138Z,32.50
2023-02-08T22:12:56.232Z,34.92
2023-02-08T22:15:31.050Z,37.40
2023-02-08T22:18:00.372Z,32.80
2023-02-08T22:20:27.392Z,40.45
2023-02-08T22:22:56.816Z,32.90
2023-02-08T22:25:24.324Z,30.92
2023-02-08T22:27:51.566Z,35.15
2023-02-08T22:30:19.470Z,30.75
2023-02-08T22:32:48.953Z,30.98
2023-02-08T22:35:18.416Z,29.85
2023-02-08T22:37:45.401Z,28.63
2023-02-08T22:40:14.826Z,27.17
2023-02-08T22:42:42.310Z,31.63
2023-02-08T22:45:11.714Z,31.67
2023-02-08T22:47:39.311Z,31.08
2023-02-08T22:50:09.309Z,29.48
2023-02-08T22:52:41.805Z,27.95
2023-02-08T22:57:43.390Z,31.40
2023-02-08T23:00:14.034Z,33.42
2023-02-08T23:02:41.087Z,33.75
2023-02-08T23:05:08.213Z,31.42
2023-02-08T23:07:35.159Z,30.90
2023-02-08T23:10:02.114Z,30.15
2023-02-08T23:12:31.676Z,30.85
2023-02-08T23:15:03.677Z,26.23
2023-02-08T23:17:35.031Z,32.38
2023-02-08T23:20:02.115Z,29.90
2023-02-08T23:22:29.060Z,29.10
2023-02-08T23:24:56.119Z,30.33
2023-02-08T23:27:23.131Z,30.50
2023-02-08T23:29:50.107Z,32.22
2023-02-08T23:34:43.893Z,33.17
2023-02-08T23:37:10.942Z,36.42
2023-02-08T23:39:40.452Z,32.70
2023-02-08T23:42:25.302Z,39.33
2023-02-08T23:44:58.470Z,35.15
2023-02-08T23:47:31.215Z,36.10
2023-02-08T23:50:02.820Z,37.13
2023-02-08T23:52:29.993Z,33.40
2023-02-08T23:57:26.343Z,37.03
